createdAt,value
2022-12-18T00:01:40.228Z,21.74
2022-12-18T00:04:07.429Z,21.71
2022-12-18T00:06:34.334Z,20.91
2022-12-18T00:09:01.123Z,18.33
2022-12-18T00:11:27.869Z,17.70
2022-12-18T00:13:54.609Z,19.54
2022-12-18T00:16:21.691Z,20.34
2022-12-18T00:18:48.622Z,20.59
2022-12-18T00:21:15.389Z,20.81
2022-12-18T00:23:42.467Z,20.97
2022-12-18T00:26:10.278Z,21.17
2022-12-18T00:28:37.000Z,21.22
2022-12-18T00:31:03.768Z,21.30
2022-12-18T00:33:30.596Z,21.42
2022-12-18T00:35:57.324Z,21.47
2022-12-18T00:38:24.056Z,21.56
2022-12-18T00:40:51.169Z,21.55
2022-12-18T00:43:17.907Z,21.64
2022-12-18T00:45:45.187Z,21.56
2022-12-18T00:48:11.950Z,19.40
2022-12-18T00:50:39.069Z,17.65
2022-12-18T00:53:05.812Z,18.97
2022-12-18T00:55:32.549Z,20.02
2022-12-18T00:57:59.282Z,20.39
2022-12-18T01:00:26.051Z,20.67
2022-12-18T01:02:52.964Z,20.89
2022-12-18T01:05:19.771Z,20.97
2022-12-18T01:07:46.509Z,21.12
2022-12-18T01:10:13.309Z,21.25
2022-12-18T01:12:40.083Z,21.33
2022-12-18T01:15:06.904Z,21.38
2022-12-18T01:17:33.768Z,21.54
2022-12-18T01:20:00.490Z,21.63
2022-12-18T01:22:27.307Z,21.64
2022-12-18T01:24:54.064Z,21.60
2022-12-18T01:27:20.894Z,21.72
2022-12-18T01:29:47.661Z,21.01
2022-12-18T01:32:14.391Z,18.69
2022-12-18T01:34:41.224Z,17.46
2022-12-18T01:37:07.962Z,19.27
2022-12-18T01:39:34.743Z,20.06
2022-12-18T01:42:04.531Z,20.45
2022-12-18T01:44:31.260Z,20.67
2022-12-18T01:46:58.050Z,20.91
2022-12-18T01:49:24.782Z,20.99
2022-12-18T01:51:51.535Z,21.07
2022-12-18T01:54:18.295Z,21.25
2022-12-18T01:56:45.025Z,21.30
2022-12-18T01:59:11.751Z,21.46
2022-12-18T02:01:38.876Z,21.48
2022-12-18T02:04:06.941Z,21.57
2022-12-18T02:06:33.662Z,21.58
2022-12-18T02:09:00.395Z,21.69
2022-12-18T02:11:27.244Z,21.55
2022-12-18T02:13:53.979Z,19.13
2022-12-18T02:16:20.787Z,17.57
2022-12-18T02:18:47.530Z,19.06
2022-12-18T02:21:14.458Z,20.09
2022-12-18T02:23:41.813Z,20.48
2022-12-18T02:26:08.775Z,20.68
2022-12-18T02:28:35.531Z,20.88
2022-12-18T02:31:02.656Z,20.96
2022-12-18T02:33:29.434Z,21.14
2022-12-18T02:35:56.158Z,21.24
2022-12-18T02:38:22.886Z,21.34
2022-12-18T02:40:49.635Z,21.42
2022-12-18T02:43:16.455Z,21.49
2022-12-18T02:45:43.246Z,21.62
2022-12-18T02:48:10.010Z,21.64
2022-12-18T02:50:36.935Z,20.54
2022-12-18T02:53:03.685Z,18.01
2022-12-18T02:55:30.494Z,17.71
2022-12-18T02:57:57.256Z,19.56
2022-12-18T03:00:23.990Z,20.18
2022-12-18T03:02:50.896Z,20.40
2022-12-18T03:05:17.738Z,20.64
2022-12-18T03:07:44.492Z,20.84
2022-12-18T03:10:11.268Z,20.91
2022-12-18T03:12:38.072Z,21.05
2022-12-18T03:15:04.886Z,21.17
2022-12-18T03:17:31.608Z,21.28
2022-12-18T03:19:58.345Z,21.40
2022-12-18T03:22:25.159Z,21.43
2022-12-18T03:24:51.870Z,21.55
2022-12-18T03:27:18.607Z,21.51
2022-12-18T03:29:45.371Z,21.66
2022-12-18T03:32:12.139Z,21.67
2022-12-18T03:34:39.257Z,21.72
2022-12-18T03:37:06.005Z,20.28
2022-12-18T03:39:32.752Z,17.98
2022-12-18T03:41:59.495Z,18.43
2022-12-18T03:44:26.267Z,19.74
2022-12-18T03:46:52.991Z,20.37
2022-12-18T03:49:19.739Z,20.61
2022-12-18T03:51:46.492Z,20.79
2022-12-18T03:54:13.243Z,20.99
2022-12-18T03:56:39.973Z,21.09
2022-12-18T03:59:06.705Z,21.17
2022-12-18T04:01:33.494Z,21.29
2022-12-18T04:04:00.486Z,21.37
2022-12-18T04:06:27.280Z,21.43
2022-12-18T04:08:54.131Z,21.46
2022-12-18T04:11:20.989Z,21.55
2022-12-18T04:13:47.909Z,21.61
2022-12-18T04:16:14.673Z,21.65
2022-12-18T04:18:41.586Z,19.89
2022-12-18T04:21:08.678Z,17.70
2022-12-18T04:23:35.418Z,18.56
2022-12-18T04:26:02.144Z,19.94
2022-12-18T04:28:28.878Z,20.38
2022-12-18T04:30:55.632Z,20.74
2022-12-18T04:33:22.387Z,20.81
2022-12-18T04:35:49.136Z,20.90
2022-12-18T04:38:16.376Z,21.12
2022-12-18T04:40:43.228Z,21.27
2022-12-18T04:43:10.212Z,21.33
2022-12-18T04:45:37.219Z,21.38
2022-12-18T04:48:03.935Z,21.39
2022-12-18T04:50:30.808Z,21.46
2022-12-18T04:52:57.612Z,21.58
2022-12-18T04:55:24.349Z,21.63
2022-12-18T04:57:51.185Z,21.69
2022-12-18T05:00:17.926Z,21.74
2022-12-18T05:02:44.759Z,20.55
2022-12-18T05:05:11.605Z,18.34
2022-12-18T05:07:38.340Z,18.18
2022-12-18T05:10:05.086Z,19.71
2022-12-18T05:12:32.740Z,20.32
2022-12-18T05:14:59.477Z,20.63
2022-12-18T05:17:26.212Z,20.82
2022-12-18T05:19:52.959Z,21.00
2022-12-18T05:22:19.687Z,21.09
2022-12-18T05:24:46.495Z,21.21
2022-12-18T05:27:13.238Z,21.31
2022-12-18T05:29:39.960Z,21.34
2022-12-18T05:32:06.713Z,21.46
2022-12-18T05:34:34.404Z,21.50
2022-12-18T05:37:01.255Z,21.59
2022-12-18T05:39:27.975Z,21.61
2022-12-18T05:41:54.719Z,21.28
2022-12-18T05:44:21.438Z,18.73
2022-12-18T05:46:48.241Z,17.58
2022-12-18T05:49:15.020Z,19.20
2022-12-18T05:51:41.744Z,20.06
2022-12-18T05:54:09.305Z,20.49
2022-12-18T05:56:36.131Z,20.63
2022-12-18T05:59:02.918Z,20.82
2022-12-18T06:01:29.823Z,21.01
2022-12-18T06:03:57.866Z,21.07
2022-12-18T06:06:24.739Z,21.16
2022-12-18T06:08:51.502Z,21.30
2022-12-18T06:11:18.325Z,21.35
2022-12-18T06:13:45.097Z,21.42
2022-12-18T06:16:11.972Z,21.52
2022-12-18T06:18:38.741Z,21.63
2022-12-18T06:21:05.472Z,21.64
2022-12-18T06:23:32.415Z,21.31
2022-12-18T06:25:59.193Z,19.02
2022-12-18T06:28:26.127Z,17.58
2022-12-18T06:30:53.875Z,19.25
2022-12-18T06:33:20.673Z,20.18
2022-12-18T06:35:47.444Z,20.49
2022-12-18T06:38:14.186Z,20.71
2022-12-18T06:40:41.103Z,20.87
2022-12-18T06:43:07.830Z,21.01
2022-12-18T06:45:34.613Z,21.16
2022-12-18T06:48:01.428Z,21.27
2022-12-18T06:50:28.180Z,21.27
2022-12-18T06:52:54.927Z,21.36
2022-12-18T06:55:21.684Z,21.51
2022-12-18T06:57:48.422Z,21.47
2022-12-18T07:00:15.175Z,21.62
2022-12-18T07:02:42.080Z,21.66
2022-12-18T07:05:10.948Z,21.67
2022-12-18T07:07:37.985Z,19.51
2022-12-18T07:10:04.839Z,17.79
2022-12-18T07:12:31.564Z,18.78
2022-12-18T07:14:58.435Z,19.95
2022-12-18T07:17:25.233Z,20.38
2022-12-18T07:19:51.970Z,20.64
2022-12-18T07:22:18.761Z,20.88
2022-12-18T07:24:45.516Z,20.98
2022-12-18T07:27:12.240Z,21.09
2022-12-18T07:29:38.973Z,21.21
2022-12-18T07:32:06.377Z,21.34
2022-12-18T07:34:33.190Z,21.38
2022-12-18T07:36:59.939Z,21.44
2022-12-18T07:39:26.743Z,21.49
2022-12-18T07:42:12.255Z,21.55
2022-12-18T07:44:39.009Z,21.66
2022-12-18T07:47:10.488Z,21.64
2022-12-18T07:49:38.881Z,20.62
2022-12-18T07:52:05.679Z,18.06
2022-12-18T07:54:32.413Z,17.75
2022-12-18T07:56:59.192Z,19.53
2022-12-18T07:59:25.933Z,20.22
2022-12-18T08:01:52.792Z,20.56
2022-12-18T08:04:19.645Z,20.74
2022-12-18T08:06:48.162Z,20.89
2022-12-18T08:09:15.225Z,21.08
2022-12-18T08:11:41.959Z,21.07
2022-12-18T08:14:08.687Z,21.23
2022-12-18T08:16:35.437Z,21.24
2022-12-18T08:19:02.266Z,21.39
2022-12-18T08:21:28.997Z,21.44
2022-12-18T08:23:55.718Z,21.55
2022-12-18T08:26:22.436Z,21.53
2022-12-18T08:28:49.188Z,21.66
2022-12-18T08:31:17.031Z,21.70
2022-12-18T08:33:44.370Z,20.57
2022-12-18T08:36:11.554Z,18.50
2022-12-18T08:38:38.275Z,17.96
2022-12-18T08:41:04.999Z,19.57
2022-12-18T08:43:50.635Z,20.28
2022-12-18T08:46:17.483Z,20.48
2022-12-18T08:48:44.542Z,20.80
2022-12-18T08:51:11.326Z,20.95
2022-12-18T08:53:38.931Z,21.04
2022-12-18T08:56:05.936Z,21.15
2022-12-18T08:58:32.668Z,21.32
2022-12-18T09:00:59.449Z,21.33
2022-12-18T09:03:26.242Z,21.40
2022-12-18T09:05:53.031Z,21.46
2022-12-18T09:08:19.788Z,21.52
2022-12-18T09:10:46.518Z,21.64
2022-12-18T09:13:13.282Z,21.74
2022-12-18T09:15:40.013Z,21.77
2022-12-18T09:18:06.747Z,19.90
2022-12-18T09:20:33.663Z,17.78
2022-12-18T09:23:00.479Z,18.50
2022-12-18T09:25:32.591Z,19.83
2022-12-18T09:27:59.377Z,20.27
2022-12-18T09:30:26.676Z,20.61
2022-12-18T09:32:53.437Z,20.83
2022-12-18T09:35:20.173Z,20.97
2022-12-18T09:37:46.913Z,21.05
2022-12-18T09:40:13.638Z,21.12
2022-12-18T09:42:40.376Z,21.28
2022-12-18T09:45:07.148Z,21.33
2022-12-18T09:47:33.911Z,21.40
2022-12-18T09:50:00.643Z,21.47
2022-12-18T09:52:27.375Z,21.60
2022-12-18T09:54:54.120Z,21.64
2022-12-18T09:57:20.869Z,21.55
2022-12-18T09:59:47.597Z,19.07
2022-12-18T10:02:14.441Z,17.84
2022-12-18T10:04:41.310Z,19.19
2022-12-18T10:07:09.465Z,20.17
2022-12-18T10:09:36.259Z,20.57
2022-12-18T10:12:04.405Z,20.83
2022-12-18T10:14:33.079Z,20.96
2022-12-18T10:16:59.812Z,21.21
2022-12-18T10:19:26.550Z,21.22
2022-12-18T10:21:53.343Z,21.30
2022-12-18T10:24:20.058Z,21.37
2022-12-18T10:26:46.825Z,21.49
2022-12-18T10:29:13.567Z,21.61
2022-12-18T10:31:40.322Z,21.57
2022-12-18T10:34:07.100Z,21.37
2022-12-18T10:36:33.816Z,18.83
2022-12-18T10:39:00.654Z,17.81
2022-12-18T10:41:29.309Z,19.26
2022-12-18T10:43:56.304Z,20.20
2022-12-18T10:46:23.135Z,20.59
2022-12-18T10:48:50.402Z,20.76
2022-12-18T10:51:17.131Z,20.87
2022-12-18T10:53:43.938Z,21.07
2022-12-18T10:56:11.253Z,21.23
2022-12-18T10:58:37.964Z,21.17
2022-12-18T11:01:04.849Z,21.32
2022-12-18T11:03:31.800Z,21.39
2022-12-18T11:05:58.602Z,21.52
2022-12-18T11:08:25.418Z,21.64
2022-12-18T11:10:52.250Z,21.65
2022-12-18T11:13:18.978Z,21.71
2022-12-18T11:15:45.746Z,20.41
2022-12-18T11:18:12.618Z,18.27
2022-12-18T11:20:39.679Z,18.26
2022-12-18T11:23:06.527Z,19.83
2022-12-18T11:25:34.959Z,20.37
2022-12-18T11:28:02.596Z,20.55
2022-12-18T11:30:29.396Z,20.76
2022-12-18T11:32:56.167Z,20.96
2022-12-18T11:35:22.890Z,21.08
2022-12-18T11:37:49.626Z,21.20
2022-12-18T11:40:16.431Z,21.22
2022-12-18T11:42:43.216Z,21.41
2022-12-18T11:45:09.937Z,21.41
2022-12-18T11:47:36.728Z,21.54
2022-12-18T11:50:03.526Z,21.62
2022-12-18T11:52:30.242Z,21.73
2022-12-18T11:54:57.140Z,21.71
2022-12-18T11:57:23.885Z,20.32
2022-12-18T11:59:50.604Z,18.26
2022-12-18T12:02:17.473Z,18.76
2022-12-18T12:04:44.350Z,20.06
2022-12-18T12:07:11.069Z,20.51
2022-12-18T12:09:38.714Z,20.75
2022-12-18T12:12:05.444Z,20.94
2022-12-18T12:14:32.169Z,21.09
2022-12-18T12:16:58.899Z,21.17
2022-12-18T12:19:25.623Z,21.34
2022-12-18T12:21:52.356Z,21.38
2022-12-18T12:24:19.094Z,21.47
2022-12-18T12:26:45.827Z,21.56
2022-12-18T12:29:19.425Z,21.71
2022-12-18T12:31:47.839Z,21.81
2022-12-18T12:34:14.609Z,20.50
2022-12-18T12:36:41.370Z,18.02
2022-12-18T12:39:08.232Z,18.51
2022-12-18T12:41:53.948Z,19.92
2022-12-18T12:44:20.689Z,20.48
2022-12-18T12:46:47.703Z,20.68
2022-12-18T12:49:15.045Z,21.01
2022-12-18T12:51:43.392Z,21.07
2022-12-18T12:54:10.149Z,21.19
2022-12-18T12:56:38.095Z,21.20
2022-12-18T12:59:05.062Z,21.34
2022-12-18T13:01:31.881Z,21.41
2022-12-18T13:03:58.988Z,21.51
2022-12-18T13:06:26.802Z,21.57
2022-12-18T13:08:53.760Z,21.65
2022-12-18T13:11:39.305Z,21.74
2022-12-18T13:14:06.628Z,20.67
2022-12-18T13:16:34.048Z,18.66
2022-12-18T13:19:00.810Z,18.53
2022-12-18T13:21:28.027Z,19.97
2022-12-18T13:23:54.812Z,20.47
2022-12-18T13:26:27.944Z,20.80
2022-12-18T13:28:56.040Z,21.01
2022-12-18T13:31:22.789Z,21.17
2022-12-18T13:36:37.139Z,21.38
2022-12-18T13:39:03.973Z,21.45
2022-12-18T13:41:30.759Z,21.50
2022-12-18T13:43:58.945Z,21.62
2022-12-18T13:46:25.719Z,21.65
2022-12-18T13:48:53.052Z,21.30
2022-12-18T13:51:19.795Z,18.72
2022-12-18T13:53:46.860Z,17.56
2022-12-18T13:56:13.577Z,19.06
2022-12-18T13:58:40.685Z,19.98
2022-12-18T14:01:07.684Z,20.41
2022-12-18T14:03:34.938Z,20.60
2022-12-18T14:06:01.785Z,20.79
2022-12-18T14:08:28.572Z,20.98
2022-12-18T14:10:55.626Z,21.11
2022-12-18T14:13:22.362Z,21.16
2022-12-18T14:15:49.451Z,21.22
2022-12-18T14:18:16.362Z,21.33
2022-12-18T14:20:45.447Z,21.40
2022-12-18T14:23:15.907Z,21.50
2022-12-18T14:25:42.634Z,21.61
2022-12-18T14:28:09.372Z,21.75
2022-12-18T14:30:36.124Z,20.36
2022-12-18T14:33:02.908Z,17.95
2022-12-18T14:35:29.659Z,17.97
2022-12-18T14:37:56.921Z,19.64
2022-12-18T14:40:23.643Z,20.25
2022-12-18T14:42:50.389Z,20.56
2022-12-18T14:45:17.107Z,20.72
2022-12-18T14:47:43.867Z,20.91
2022-12-18T14:50:10.638Z,20.99
2022-12-18T14:52:37.356Z,21.09
2022-12-18T14:55:04.081Z,21.25
2022-12-18T14:57:30.826Z,21.31
2022-12-18T14:59:57.554Z,21.44
2022-12-18T15:02:24.527Z,21.46
2022-12-18T15:04:51.411Z,21.49
2022-12-18T15:07:18.133Z,21.66
2022-12-18T15:09:45.993Z,21.65
2022-12-18T15:12:12.908Z,21.69
2022-12-18T15:14:39.642Z,20.04
2022-12-18T15:17:06.456Z,17.88
2022-12-18T15:19:33.191Z,18.88
2022-12-18T15:22:05.871Z,20.07
2022-12-18T15:24:33.211Z,20.51
2022-12-18T15:26:59.970Z,20.81
2022-12-18T15:29:27.040Z,20.99
2022-12-18T15:31:53.789Z,21.11
2022-12-18T15:34:21.534Z,21.21
2022-12-18T15:36:48.357Z,21.27
2022-12-18T15:39:15.141Z,21.41
2022-12-18T15:42:01.907Z,21.51
2022-12-18T15:44:28.633Z,21.52
2022-12-18T15:46:55.364Z,21.63
2022-12-18T15:49:22.125Z,21.67
2022-12-18T15:51:48.847Z,21.85
2022-12-18T15:54:16.919Z,20.84
2022-12-18T15:57:02.241Z,18.42
2022-12-18T15:59:29.330Z,17.89
2022-12-18T16:01:56.408Z,19.77
2022-12-18T16:04:23.320Z,20.30
2022-12-18T16:09:36.786Z,20.89
2022-12-18T16:12:03.507Z,20.97
2022-12-18T16:14:30.250Z,21.11
2022-12-18T16:16:57.309Z,21.23
2022-12-18T16:19:24.050Z,21.32
2022-12-18T16:21:50.977Z,21.43
2022-12-18T16:24:17.716Z,21.48
2022-12-18T16:26:44.444Z,21.51
2022-12-18T16:29:11.239Z,21.58
2022-12-18T16:31:38.861Z,21.79
2022-12-18T16:34:05.576Z,21.64
2022-12-18T16:36:32.315Z,19.12
2022-12-18T16:38:59.097Z,17.88
2022-12-18T16:41:32.267Z,19.45
2022-12-18T16:43:59.074Z,20.32
2022-12-18T16:46:25.858Z,20.64
2022-12-18T16:48:52.590Z,20.80
2022-12-18T16:51:19.308Z,20.98
2022-12-18T16:53:46.139Z,21.17
2022-12-18T16:56:13.094Z,21.24
2022-12-18T16:58:39.823Z,21.32
2022-12-18T17:01:08.513Z,21.43
2022-12-18T17:03:35.293Z,21.51
2022-12-18T17:06:02.093Z,21.61
2022-12-18T17:08:28.837Z,21.67
2022-12-18T17:10:55.556Z,20.22
2022-12-18T17:13:25.903Z,18.05
2022-12-18T17:15:53.139Z,18.39
2022-12-18T17:18:21.270Z,19.84
2022-12-18T17:20:48.074Z,20.27
2022-12-18T17:23:14.856Z,20.59
2022-12-18T17:25:41.637Z,20.84
2022-12-18T17:28:08.388Z,20.94
2022-12-18T17:30:35.120Z,21.04
2022-12-18T17:33:01.879Z,21.18
2022-12-18T17:35:28.592Z,21.29
2022-12-18T17:37:55.336Z,21.39
2022-12-18T17:40:22.076Z,21.40
2022-12-18T17:42:48.783Z,21.50
2022-12-18T17:45:15.573Z,21.53
2022-12-18T17:47:42.322Z,21.61
2022-12-18T17:50:09.167Z,19.42
2022-12-18T17:52:36.384Z,18.25
2022-12-18T17:55:03.117Z,18.94
2022-12-18T17:57:29.855Z,20.11
2022-12-18T17:59:56.612Z,20.48
2022-12-18T18:02:23.548Z,20.72
2022-12-18T18:04:50.416Z,20.91
2022-12-18T18:07:17.156Z,21.05
2022-12-18T18:09:43.956Z,21.13
2022-12-18T18:12:29.567Z,21.27
2022-12-18T18:14:56.337Z,21.41
2022-12-18T18:17:23.072Z,21.50
2022-12-18T18:19:49.934Z,21.46
2022-12-18T18:22:16.686Z,21.59
2022-12-18T18:24:44.973Z,21.67
2022-12-18T18:27:11.767Z,21.67
2022-12-18T18:29:38.544Z,21.74
2022-12-18T18:32:05.316Z,20.59
2022-12-18T18:34:32.120Z,18.69
2022-12-18T18:36:59.036Z,18.40
2022-12-18T18:39:25.759Z,19.85
2022-12-18T18:41:52.505Z,20.45
2022-12-18T18:44:20.402Z,20.78
2022-12-18T18:46:51.608Z,20.95
2022-12-18T18:49:18.577Z,21.06
2022-12-18T18:51:45.303Z,21.24
2022-12-18T18:54:12.657Z,21.44
2022-12-18T18:57:18.834Z,21.54
2022-12-18T18:59:31.520Z,21.50
2022-12-18T19:01:59.800Z,21.58
2022-12-18T19:04:28.380Z,21.66
2022-12-18T19:06:55.135Z,21.74
2022-12-18T19:09:22.581Z,20.49
2022-12-18T19:12:08.185Z,18.71
2022-12-18T19:14:35.117Z,18.97
2022-12-18T19:17:01.916Z,20.17
2022-12-18T19:19:29.298Z,20.56
2022-12-18T19:21:56.393Z,20.82
2022-12-18T19:24:23.128Z,20.98
2022-12-18T19:26:49.928Z,21.22
2022-12-18T19:29:16.666Z,21.33
2022-12-18T19:31:43.578Z,21.33
2022-12-18T19:34:10.348Z,21.39
2022-12-18T19:36:37.219Z,21.45
2022-12-18T19:39:04.056Z,21.62
2022-12-18T19:41:31.473Z,21.70
2022-12-18T19:44:02.245Z,21.55
2022-12-18T19:46:35.163Z,19.02
2022-12-18T19:49:01.950Z,17.75
2022-12-18T19:51:30.529Z,19.19
2022-12-18T19:53:59.410Z,20.16
2022-12-18T19:56:27.874Z,20.50
2022-12-18T19:58:54.602Z,20.80
2022-12-18T20:01:21.434Z,20.93
2022-12-18T20:03:52.331Z,21.03
2022-12-18T20:06:21.154Z,21.17
2022-12-18T20:08:47.929Z,21.34
2022-12-18T20:11:14.685Z,21.38
2022-12-18T20:13:41.608Z,21.47
2022-12-18T20:16:08.741Z,21.58
2022-12-18T20:18:35.624Z,21.62
2022-12-18T20:21:02.405Z,21.61
2022-12-18T20:23:30.259Z,21.11
2022-12-18T20:25:59.537Z,18.66
2022-12-18T20:28:26.405Z,18.32
2022-12-18T20:30:53.132Z,19.73
2022-12-18T20:33:19.867Z,20.36
2022-12-18T20:35:46.589Z,20.60
2022-12-18T20:38:14.237Z,20.86
2022-12-18T20:40:41.325Z,21.04
2022-12-18T20:43:11.306Z,21.15
2022-12-18T20:45:40.629Z,21.28
2022-12-18T20:48:09.589Z,21.39
2022-12-18T20:50:36.388Z,21.39
2022-12-18T20:53:03.153Z,21.55
2022-12-18T20:55:29.944Z,21.63
2022-12-18T20:57:56.680Z,20.85
2022-12-18T21:00:23.411Z,18.62
2022-12-18T21:02:50.292Z,18.00
2022-12-18T21:05:17.135Z,19.56
2022-12-18T21:07:43.971Z,20.27
2022-12-18T21:10:10.718Z,20.63
2022-12-18T21:13:00.118Z,20.73
2022-12-18T21:15:30.080Z,20.94
2022-12-18T21:17:56.895Z,21.10
2022-12-18T21:20:23.878Z,21.23
2022-12-18T21:22:50.927Z,21.26
2022-12-18T21:25:19.415Z,21.37
2022-12-18T21:27:46.164Z,21.41
2022-12-18T21:30:13.904Z,21.55
2022-12-18T21:32:40.647Z,21.63
2022-12-18T21:35:07.362Z,21.69
2022-12-18T21:37:34.164Z,21.51
2022-12-18T21:40:00.921Z,19.12
2022-12-18T21:42:46.528Z,18.12
2022-12-18T21:45:13.279Z,19.51
2022-12-18T21:47:40.029Z,20.25
2022-12-18T21:50:06.765Z,20.60
2022-12-18T21:52:33.484Z,20.86
2022-12-18T21:55:06.666Z,21.00
2022-12-18T21:57:35.573Z,21.10
2022-12-18T22:00:02.990Z,21.23
2022-12-18T22:02:30.087Z,21.31
2022-12-18T22:04:56.998Z,21.40
2022-12-18T22:07:23.750Z,21.51
2022-12-18T22:09:50.477Z,21.51
2022-12-18T22:12:34.999Z,21.63
2022-12-18T22:15:01.888Z,21.69
2022-12-18T22:17:28.820Z,21.70
2022-12-18T22:19:56.137Z,19.36
2022-12-18T22:22:22.940Z,17.88
2022-12-18T22:24:49.662Z,19.06
2022-12-18T22:27:16.394Z,20.18
2022-12-18T22:30:01.935Z,20.57
2022-12-18T22:32:30.738Z,20.83
2022-12-18T22:35:01.841Z,21.01
2022-12-18T22:37:33.005Z,21.18
2022-12-18T22:39:59.752Z,21.24
2022-12-18T22:42:30.342Z,21.31
2022-12-18T22:44:57.091Z,21.44
2022-12-18T22:47:28.019Z,21.45
2022-12-18T22:49:56.645Z,21.49
2022-12-18T22:52:24.337Z,21.61
2022-12-18T22:54:53.613Z,21.64
2022-12-18T22:57:21.402Z,19.28
2022-12-18T22:59:48.142Z,17.82
2022-12-18T23:02:15.052Z,19.24
2022-12-18T23:04:41.877Z,20.16
2022-12-18T23:07:08.684Z,20.46
2022-12-18T23:09:37.968Z,20.76
2022-12-18T23:12:04.708Z,20.98
2022-12-18T23:14:31.715Z,21.08
2022-12-18T23:16:58.453Z,21.15
2022-12-18T23:19:25.227Z,21.25
2022-12-18T23:21:51.976Z,21.38
2022-12-18T23:24:21.595Z,21.41
2022-12-18T23:26:48.396Z,21.56
2022-12-18T23:29:15.135Z,21.61
2022-12-18T23:31:41.896Z,21.70
2022-12-18T23:34:08.842Z,21.03
2022-12-18T23:36:45.502Z,18.74
2022-12-18T23:39:25.810Z,17.71
2022-12-18T23:41:56.661Z,19.67
2022-12-18T23:44:23.387Z,20.23
2022-12-18T23:46:50.180Z,20.59
2022-12-18T23:49:17.000Z,20.80
2022-12-18T23:51:43.728Z,20.90
2022-12-18T23:54:10.471Z,21.10
2022-12-18T23:56:37.313Z,21.13
2022-12-18T23:59:04.069Z,21.29
